createdAt,value
2023-04-07T00:01:20.659Z,206.10
2023-04-07T00:02:21.496Z,217.00
2023-04-07T00:03:22.398Z,222.90
2023-04-07T00:04:23.399Z,204.60
2023-04-07T00:05:24.114Z,198.90
2023-04-07T00:06:24.822Z,215.00
2023-04-07T00:07:25.525Z,225.30
2023-04-07T00:08:26.233Z,212.40
2023-04-07T00:09:26.937Z,205.70
2023-04-07T00:10:27.645Z,225.30
2023-04-07T00:11:28.386Z,216.60
2023-04-07T00:12:29.071Z,226.60
2023-04-07T00:13:30.814Z,205.30
2023-04-07T00:14:30.572Z,223.60
2023-04-07T00:15:31.291Z,229.40
2023-04-07T00:16:32.384Z,238.90
2023-04-07T00:17:32.596Z,211.00
2023-04-07T00:18:33.268Z,215.60
2023-04-07T00:19:33.970Z,212.10
2023-04-07T00:20:34.681Z,236.40
2023-04-07T00:21:35.386Z,211.20
2023-04-07T00:22:36.089Z,223.60
2023-04-07T00:23:36.794Z,229.30
2023-04-07T00:24:37.501Z,252.10
2023-04-07T00:25:38.207Z,218.10
2023-04-07T00:26:39.378Z,237.70
2023-04-07T00:27:39.578Z,223.10
2023-04-07T00:28:40.276Z,249.40
2023-04-07T00:29:40.958Z,240.10
2023-04-07T00:30:41.665Z,233.50
2023-04-07T00:31:42.574Z,223.40
2023-04-07T00:32:43.279Z,255.80
2023-04-07T00:33:44.204Z,241.90
2023-04-07T00:34:45.054Z,241.10
2023-04-07T00:35:45.799Z,237.90
2023-04-07T00:36:46.497Z,243.00
2023-04-07T00:37:47.194Z,246.80
2023-04-07T00:38:47.896Z,239.10
2023-04-07T00:39:48.610Z,234.40
2023-04-07T00:40:49.301Z,225.80
2023-04-07T00:41:50.072Z,243.40
2023-04-07T00:42:50.840Z,235.00
2023-04-07T00:43:51.920Z,250.20
2023-04-07T00:44:52.300Z,254.20
2023-04-07T00:45:53.097Z,261.10
2023-04-07T00:46:53.967Z,253.50
2023-04-07T00:47:54.730Z,248.70
2023-04-07T00:48:55.447Z,247.80
2023-04-07T00:49:56.151Z,265.80
2023-04-07T00:50:56.924Z,276.10
2023-04-07T00:51:57.693Z,287.00
2023-04-07T00:52:58.337Z,278.40
2023-04-07T00:53:59.036Z,258.50
2023-04-07T00:54:59.740Z,278.00
2023-04-07T00:57:49.367Z,293.10
2023-04-07T00:58:50.025Z,286.10
2023-04-07T00:59:50.739Z,294.10
2023-04-07T01:00:51.430Z,296.20
2023-04-07T01:01:52.224Z,287.20
2023-04-07T01:02:53.265Z,289.10
2023-04-07T01:03:54.038Z,317.00
2023-04-07T01:04:54.101Z,312.80
2023-04-07T01:05:54.806Z,317.10
2023-04-07T01:06:55.505Z,309.50
2023-04-07T01:07:56.215Z,287.50
2023-04-07T01:08:56.925Z,309.50
2023-04-07T01:09:57.630Z,322.70
2023-04-07T01:10:58.318Z,309.80
2023-04-07T01:11:59.025Z,291.80
2023-04-07T01:12:59.784Z,308.80
2023-04-07T01:14:00.478Z,344.40
2023-04-07T01:15:01.192Z,301.70
2023-04-07T01:16:01.946Z,320.80
2023-04-07T01:17:02.625Z,320.30
2023-04-07T01:18:03.560Z,323.20
2023-04-07T01:19:04.215Z,317.60
2023-04-07T01:20:04.938Z,343.00
2023-04-07T01:21:05.646Z,325.10
2023-04-07T01:22:06.360Z,329.10
2023-04-07T01:23:07.060Z,345.50
2023-04-07T01:24:07.759Z,353.40
2023-04-07T01:25:08.468Z,328.20
2023-04-07T01:26:09.167Z,319.80
2023-04-07T01:27:09.882Z,333.60
2023-04-07T01:28:10.615Z,321.60
2023-04-07T01:29:11.310Z,335.00
2023-04-07T01:30:11.976Z,320.70
2023-04-07T01:31:12.834Z,341.60
2023-04-07T01:32:13.559Z,328.60
2023-04-07T01:33:14.285Z,339.50
2023-04-07T01:34:14.972Z,322.40
2023-04-07T01:35:15.672Z,352.70
2023-04-07T01:36:16.401Z,326.60
2023-04-07T01:37:17.116Z,316.30
2023-04-07T01:38:17.834Z,341.30
2023-04-07T01:39:18.514Z,349.80
2023-04-07T01:40:19.212Z,359.80
2023-04-07T01:41:19.933Z,344.10
2023-04-07T01:42:20.645Z,349.40
2023-04-07T01:43:21.536Z,352.70
2023-04-07T01:44:22.224Z,361.00
2023-04-07T01:45:22.937Z,339.90
2023-04-07T01:46:23.635Z,346.90
2023-04-07T01:47:24.480Z,362.50
2023-04-07T01:48:25.559Z,362.40
2023-04-07T01:49:25.785Z,365.60
2023-04-07T01:50:26.501Z,352.10
2023-04-07T01:51:27.191Z,364.10
2023-04-07T01:52:27.901Z,366.10
2023-04-07T01:53:28.625Z,343.90
2023-04-07T01:54:29.473Z,370.80
2023-04-07T01:55:51.141Z,360.00
2023-04-07T01:56:30.830Z,344.70
2023-04-07T01:57:31.528Z,372.10
2023-04-07T01:58:32.259Z,365.20
2023-04-07T01:59:32.966Z,352.90
2023-04-07T02:00:33.665Z,365.80
2023-04-07T02:01:34.467Z,356.80
2023-04-07T02:02:35.252Z,352.80
2023-04-07T02:03:36.199Z,386.70
2023-04-07T02:04:36.884Z,365.20
2023-04-07T02:05:37.570Z,364.40
2023-04-07T02:06:38.273Z,364.80
2023-04-07T02:07:38.977Z,366.30
2023-04-07T02:08:39.688Z,388.80
2023-04-07T02:09:40.392Z,404.00
2023-04-07T02:10:41.122Z,365.50
2023-04-07T02:11:41.831Z,372.70
2023-04-07T02:12:42.539Z,374.50
2023-04-07T02:13:43.530Z,398.00
2023-04-07T02:14:44.240Z,384.80
2023-04-07T02:15:44.930Z,388.90
2023-04-07T02:16:47.539Z,372.00
2023-04-07T02:17:46.548Z,390.10
2023-04-07T02:18:47.260Z,366.60
2023-04-07T02:20:08.946Z,380.80
2023-04-07T02:20:48.645Z,354.70
2023-04-07T02:21:49.369Z,365.90
2023-04-07T02:22:50.055Z,336.40
2023-04-07T02:23:51.009Z,352.00
2023-04-07T02:24:51.721Z,400.40
2023-04-07T02:25:52.424Z,385.40
2023-04-07T02:26:53.157Z,376.20
2023-04-07T02:27:53.838Z,412.90
2023-04-07T02:28:54.570Z,391.30
2023-04-07T02:29:55.244Z,411.00
2023-04-07T02:30:55.947Z,402.10
2023-04-07T02:31:56.700Z,394.10
2023-04-07T02:32:57.408Z,397.10
2023-04-07T02:33:58.541Z,411.40
2023-04-07T02:34:58.757Z,395.20
2023-04-07T02:35:59.454Z,422.40
2023-04-07T02:37:21.164Z,379.90
2023-04-07T02:38:00.870Z,408.90
2023-04-07T02:39:01.572Z,414.50
2023-04-07T02:40:02.339Z,406.30
2023-04-07T02:41:03.053Z,403.90
2023-04-07T02:42:03.780Z,391.00
2023-04-07T02:43:04.477Z,414.30
2023-04-07T02:44:05.544Z,396.00
2023-04-07T02:45:05.723Z,427.90
2023-04-07T02:46:06.443Z,400.60
2023-04-07T02:47:07.130Z,435.20
2023-04-07T02:48:07.825Z,407.10
2023-04-07T02:49:08.562Z,396.30
2023-04-07T02:50:09.245Z,389.60
2023-04-07T02:51:09.946Z,414.10
2023-04-07T02:52:10.655Z,381.30
2023-04-07T02:53:11.387Z,387.20
2023-04-07T02:54:12.101Z,359.60
2023-04-07T02:55:12.810Z,397.10
2023-04-07T02:56:13.530Z,388.60
2023-04-07T02:57:14.240Z,385.50
2023-04-07T02:58:14.942Z,379.70
2023-04-07T02:59:34.052Z,381.30
2023-04-07T03:00:16.233Z,365.00
2023-04-07T03:01:16.985Z,371.50
2023-04-07T03:02:17.701Z,386.30
2023-04-07T03:03:18.579Z,370.50
2023-04-07T03:04:19.746Z,363.20
2023-04-07T03:05:20.047Z,374.60
2023-04-07T03:06:20.778Z,371.90
2023-04-07T03:07:21.467Z,363.90
2023-04-07T03:08:22.169Z,360.10
2023-04-07T03:09:22.891Z,366.00
2023-04-07T03:10:23.581Z,389.80
2023-04-07T03:11:24.316Z,366.90
2023-04-07T03:12:25.026Z,385.30
2023-04-07T03:13:25.713Z,380.90
2023-04-07T03:14:26.417Z,370.90
2023-04-07T03:15:27.149Z,353.90
2023-04-07T03:16:27.878Z,374.30
2023-04-07T03:17:28.579Z,374.40
2023-04-07T03:18:29.279Z,372.30
2023-04-07T03:19:50.983Z,380.70
2023-04-07T03:20:30.673Z,382.10
2023-04-07T03:21:31.392Z,397.10
2023-04-07T03:22:32.101Z,366.00
2023-04-07T03:23:32.806Z,380.50
2023-04-07T03:24:33.501Z,381.80
2023-04-07T03:25:34.265Z,379.90
2023-04-07T03:26:34.982Z,381.90
2023-04-07T03:27:35.697Z,389.90
2023-04-07T03:28:36.370Z,382.20
2023-04-07T03:29:37.118Z,365.80
2023-04-07T03:30:37.894Z,363.60
2023-04-07T03:31:38.564Z,374.80
2023-04-07T03:32:39.303Z,387.00
2023-04-07T03:33:39.993Z,380.90
2023-04-07T03:34:40.697Z,376.90
2023-04-07T03:35:41.447Z,398.50
2023-04-07T03:36:42.118Z,385.30
2023-04-07T03:37:42.848Z,398.70
2023-04-07T03:38:43.543Z,403.00
2023-04-07T03:39:44.242Z,419.00
2023-04-07T03:40:44.965Z,375.50
2023-04-07T03:41:45.672Z,406.80
2023-04-07T03:44:35.201Z,386.10
2023-04-07T03:45:35.886Z,392.20
2023-04-07T03:46:36.654Z,429.60
2023-04-07T03:47:37.505Z,407.50
2023-04-07T03:48:38.179Z,416.20
2023-04-07T03:49:38.954Z,424.50
2023-04-07T03:50:39.628Z,417.10
2023-04-07T03:51:40.345Z,429.00
2023-04-07T03:52:41.063Z,442.00
2023-04-07T03:53:41.785Z,423.20
2023-04-07T03:54:42.457Z,423.90
2023-04-07T03:55:43.164Z,434.60
2023-04-07T03:56:43.853Z,428.40
2023-04-07T03:57:44.564Z,452.00
2023-04-07T03:58:45.267Z,427.50
2023-04-07T03:59:45.976Z,423.50
2023-04-07T04:00:46.670Z,432.80
2023-04-07T04:01:47.419Z,428.20
2023-04-07T04:02:48.149Z,421.00
2023-04-07T04:03:49.008Z,428.60
2023-04-07T04:04:49.847Z,434.30
2023-04-07T04:05:50.574Z,448.90
2023-04-07T04:06:51.312Z,440.70
2023-04-07T04:07:52.018Z,438.00
2023-04-07T04:08:52.727Z,458.00
2023-04-07T04:09:53.431Z,464.00
2023-04-07T04:10:54.158Z,463.00
2023-04-07T04:11:54.843Z,466.70
2023-04-07T04:12:55.552Z,452.90
2023-04-07T04:13:56.308Z,456.50
2023-04-07T04:14:57.013Z,498.20
2023-04-07T04:15:57.747Z,466.10
2023-04-07T04:16:58.449Z,458.70
2023-04-07T04:17:59.175Z,478.80
2023-04-07T04:18:59.828Z,467.10
2023-04-07T04:20:00.552Z,463.40
2023-04-07T04:21:01.246Z,480.80
2023-04-07T04:22:01.975Z,439.50
2023-04-07T04:23:02.654Z,473.60
2023-04-07T04:24:03.369Z,464.20
2023-04-07T04:25:04.403Z,463.60
2023-04-07T04:26:04.624Z,520.90
2023-04-07T04:27:05.339Z,474.70
2023-04-07T04:28:06.023Z,483.10
2023-04-07T04:29:06.736Z,469.10
2023-04-07T04:30:07.479Z,544.60
2023-04-07T04:31:08.206Z,448.40
2023-04-07T04:32:08.882Z,457.20
2023-04-07T04:33:09.572Z,451.30
2023-04-07T04:34:10.297Z,447.00
2023-04-07T04:35:11.006Z,431.40
2023-04-07T04:36:11.792Z,434.40
2023-04-07T04:37:12.549Z,430.30
2023-04-07T04:38:13.236Z,415.10
2023-04-07T04:39:13.935Z,431.20
2023-04-07T04:40:14.642Z,460.90
2023-04-07T04:41:15.347Z,456.60
2023-04-07T04:42:16.045Z,456.30
2023-04-07T04:43:52.409Z,488.70
2023-04-07T04:44:17.605Z,427.60
2023-04-07T04:45:18.457Z,411.80
2023-04-07T04:46:19.133Z,440.30
2023-04-07T04:47:19.870Z,470.50
2023-04-07T04:48:20.562Z,427.80
2023-04-07T04:49:21.262Z,488.70
2023-04-07T04:50:22.426Z,409.30
2023-04-07T04:51:22.617Z,407.50
2023-04-07T04:52:23.342Z,440.80
2023-04-07T04:53:24.044Z,433.60
2023-04-07T04:54:24.750Z,440.40
2023-04-07T04:55:25.473Z,472.40
2023-04-07T04:56:26.190Z,452.80
2023-04-07T04:57:26.873Z,438.50
2023-04-07T04:58:27.578Z,460.70
2023-04-07T04:59:28.297Z,436.70
2023-04-07T05:00:29.424Z,466.90
2023-04-07T05:01:31.427Z,459.80
2023-04-07T05:02:30.644Z,459.60
2023-04-07T05:03:31.550Z,439.30
2023-04-07T05:04:32.924Z,461.10
2023-04-07T05:05:33.267Z,466.30
2023-04-07T05:06:34.007Z,475.20
2023-04-07T05:07:34.693Z,469.90
2023-04-07T05:08:35.377Z,489.20
2023-04-07T05:09:36.101Z,501.40
2023-04-07T05:10:36.910Z,502.60
2023-04-07T05:11:37.613Z,489.60
2023-04-07T05:12:38.332Z,498.00
2023-04-07T05:13:39.061Z,522.60
2023-04-07T05:14:39.782Z,498.70
2023-04-07T05:15:40.493Z,478.20
2023-04-07T05:16:41.409Z,528.30
2023-04-07T05:17:42.175Z,491.10
2023-04-07T05:18:42.830Z,512.10
2023-04-07T05:19:43.534Z,503.90
2023-04-07T05:20:44.417Z,527.20
2023-04-07T05:21:45.126Z,518.00
2023-04-07T05:22:45.850Z,501.40
2023-04-07T05:24:22.413Z,517.70
2023-04-07T05:24:47.115Z,527.60
2023-04-07T05:25:47.820Z,518.80
2023-04-07T05:26:48.525Z,529.30
2023-04-07T05:27:49.225Z,536.20
2023-04-07T05:28:49.933Z,567.10
2023-04-07T05:29:50.657Z,541.30
2023-04-07T05:30:51.409Z,535.80
2023-04-07T05:31:52.136Z,512.50
2023-04-07T05:32:52.951Z,506.90
2023-04-07T05:33:53.769Z,506.90
2023-04-07T05:34:54.440Z,531.60
2023-04-07T05:35:55.480Z,489.40
2023-04-07T05:36:55.632Z,503.90
2023-04-07T05:37:56.365Z,500.90
2023-04-07T05:38:57.057Z,509.30
2023-04-07T05:39:57.784Z,542.40
2023-04-07T05:40:58.911Z,530.60
2023-04-07T05:41:59.137Z,523.90
2023-04-07T05:42:59.817Z,529.20
2023-04-07T05:44:00.545Z,536.50
2023-04-07T05:45:01.286Z,539.80
2023-04-07T05:46:02.522Z,530.00
2023-04-07T05:47:02.689Z,538.30
2023-04-07T05:48:03.449Z,518.40
2023-04-07T05:49:18.395Z,505.10
2023-04-07T05:50:05.755Z,507.90
2023-04-07T05:51:05.924Z,470.90
2023-04-07T05:52:06.118Z,471.90
2023-04-07T05:53:06.841Z,504.90
2023-04-07T05:54:07.535Z,495.20
2023-04-07T05:55:08.231Z,488.70
2023-04-07T05:56:09.417Z,547.90
2023-04-07T05:57:09.625Z,517.60
2023-04-07T05:58:10.351Z,487.50
2023-04-07T05:59:11.077Z,473.90
2023-04-07T06:00:11.768Z,498.70
2023-04-07T06:01:12.915Z,469.90
2023-04-07T06:02:13.175Z,471.80
2023-04-07T06:03:14.014Z,457.20
2023-04-07T06:04:14.704Z,440.20
2023-04-07T06:05:15.440Z,445.10
2023-04-07T06:06:16.420Z,463.50
2023-04-07T06:07:17.119Z,477.50
2023-04-07T06:08:17.846Z,456.30
2023-04-07T06:09:39.559Z,467.20
2023-04-07T06:10:19.282Z,440.70
2023-04-07T06:11:20.033Z,450.50
2023-04-07T06:12:20.710Z,443.00
2023-04-07T06:13:21.415Z,450.60
2023-04-07T06:14:22.192Z,461.10
2023-04-07T06:15:22.876Z,468.00
2023-04-07T06:16:23.622Z,442.90
2023-04-07T06:17:24.332Z,440.60
2023-04-07T06:18:25.037Z,442.00
2023-04-07T06:19:25.719Z,447.90
2023-04-07T06:20:26.423Z,436.50
2023-04-07T06:21:27.423Z,434.30
2023-04-07T06:22:27.648Z,419.40
2023-04-07T06:23:28.372Z,425.90
2023-04-07T06:24:29.089Z,405.00
2023-04-07T06:25:29.802Z,410.60
2023-04-07T06:26:51.492Z,416.70
2023-04-07T06:27:31.196Z,410.40
2023-04-07T06:28:31.890Z,425.90
2023-04-07T06:29:32.593Z,420.50
2023-04-07T06:30:33.352Z,429.20
2023-04-07T06:31:34.024Z,403.30
2023-04-07T06:32:34.767Z,420.30
2023-04-07T06:33:35.457Z,373.60
2023-04-07T06:34:36.138Z,400.50
2023-04-07T06:35:36.854Z,409.40
2023-04-07T06:36:37.616Z,422.80
2023-04-07T06:37:38.412Z,435.90
2023-04-07T06:38:39.144Z,441.20
2023-04-07T06:39:39.828Z,421.80
2023-04-07T06:40:40.543Z,396.20
2023-04-07T06:41:41.243Z,395.40
2023-04-07T06:42:41.976Z,428.10
2023-04-07T06:43:42.655Z,420.00
2023-04-07T06:44:43.363Z,414.90
2023-04-07T06:45:44.100Z,380.00
2023-04-07T06:46:44.831Z,404.70
2023-04-07T06:47:45.583Z,405.80
2023-04-07T06:49:13.926Z,408.20
2023-04-07T06:49:47.133Z,412.00
2023-04-07T06:50:47.840Z,407.30
2023-04-07T06:51:48.538Z,394.80
2023-04-07T06:52:49.244Z,399.20
2023-04-07T06:53:50.207Z,370.20
2023-04-07T06:54:50.466Z,384.00
2023-04-07T06:55:51.163Z,388.50
2023-04-07T06:56:53.587Z,407.10
2023-04-07T06:57:52.703Z,392.40
2023-04-07T06:58:53.411Z,402.50
2023-04-07T06:59:54.113Z,401.80
2023-04-07T07:00:54.822Z,373.50
2023-04-07T07:01:55.625Z,356.70
2023-04-07T07:02:56.416Z,354.70
2023-04-07T07:03:57.295Z,360.30
2023-04-07T07:04:58.113Z,373.60
2023-04-07T07:05:58.810Z,372.70
2023-04-07T07:06:59.510Z,396.50
2023-04-07T07:08:00.224Z,390.10
2023-04-07T07:09:28.942Z,382.10
2023-04-07T07:10:01.642Z,389.10
2023-04-07T07:11:02.338Z,409.50
2023-04-07T07:12:04.288Z,370.00
2023-04-07T07:13:03.566Z,361.30
2023-04-07T07:14:04.274Z,360.30
2023-04-07T07:15:04.955Z,367.00
2023-04-07T07:16:05.701Z,379.80
2023-04-07T07:17:06.367Z,379.20
2023-04-07T07:18:07.569Z,374.60
2023-04-07T07:19:07.741Z,381.80
2023-04-07T07:20:08.491Z,401.50
2023-04-07T07:21:09.151Z,396.20
2023-04-07T07:22:09.879Z,374.60
2023-04-07T07:23:10.939Z,382.80
2023-04-07T07:24:11.123Z,414.60
2023-04-07T07:25:11.848Z,386.40
2023-04-07T07:26:12.542Z,373.20
2023-04-07T07:27:13.244Z,376.20
2023-04-07T07:28:14.431Z,370.30
2023-04-07T07:29:14.634Z,402.10
2023-04-07T07:30:15.347Z,361.00
2023-04-07T07:31:16.130Z,370.20
2023-04-07T07:32:16.807Z,399.80
2023-04-07T07:33:17.926Z,383.70
2023-04-07T07:34:18.146Z,379.80
2023-04-07T07:35:18.867Z,385.20
2023-04-07T07:36:40.545Z,375.00
2023-04-07T07:37:20.277Z,360.10
2023-04-07T07:38:20.970Z,384.90
2023-04-07T07:39:21.752Z,352.40
2023-04-07T07:40:22.424Z,376.00
2023-04-07T07:41:23.124Z,351.20
2023-04-07T07:42:23.813Z,344.30
2023-04-07T07:43:24.520Z,334.60
2023-04-07T07:44:25.236Z,365.10
2023-04-07T07:45:25.965Z,380.00
2023-04-07T07:46:26.695Z,355.10
2023-04-07T07:47:27.357Z,363.90
2023-04-07T07:48:28.073Z,368.10
2023-04-07T07:49:28.771Z,368.30
2023-04-07T07:50:29.508Z,379.30
2023-04-07T07:51:30.189Z,341.80
2023-04-07T07:52:30.891Z,371.30
2023-04-07T07:53:31.602Z,346.80
2023-04-07T07:54:53.322Z,366.70
2023-04-07T07:55:33.076Z,376.00
2023-04-07T07:56:33.760Z,352.80
2023-04-07T07:57:34.454Z,364.20
2023-04-07T07:58:35.169Z,361.40
2023-04-07T07:59:35.882Z,368.70
2023-04-07T08:00:36.576Z,363.40
2023-04-07T08:01:37.317Z,377.00
2023-04-07T08:02:38.042Z,379.10
2023-04-07T08:03:39.019Z,384.90
2023-04-07T08:04:39.368Z,379.40
2023-04-07T08:05:40.097Z,390.30
2023-04-07T08:06:40.742Z,356.10
2023-04-07T08:07:41.451Z,376.10
2023-04-07T08:08:42.162Z,375.70
2023-04-07T08:09:42.855Z,373.90
2023-04-07T08:10:43.601Z,376.20
2023-04-07T08:11:44.298Z,374.90
2023-04-07T08:12:44.998Z,382.90
2023-04-07T08:13:46.062Z,352.30
2023-04-07T08:15:07.488Z,346.50
2023-04-07T08:15:47.219Z,374.80
2023-04-07T08:16:47.903Z,373.00
2023-04-07T08:17:48.649Z,338.70
2023-04-07T08:18:49.458Z,349.60
2023-04-07T08:19:49.890Z,327.90
2023-04-07T08:20:50.610Z,322.30
2023-04-07T08:21:51.303Z,345.70
2023-04-07T08:22:52.029Z,347.30
2023-04-07T08:23:52.922Z,325.70
2023-04-07T08:24:53.627Z,337.60
2023-04-07T08:25:54.349Z,349.00
2023-04-07T08:26:55.036Z,353.20
2023-04-07T08:27:55.742Z,352.80
2023-04-07T08:28:56.925Z,364.70
2023-04-07T08:29:57.131Z,368.50
2023-04-07T08:30:57.848Z,381.00
2023-04-07T08:31:58.655Z,395.40
2023-04-07T08:32:59.383Z,383.50
2023-04-07T08:34:00.444Z,366.40
2023-04-07T08:35:00.630Z,408.10
2023-04-07T08:36:01.415Z,371.10
2023-04-07T08:38:50.928Z,378.80
2023-04-07T08:39:51.644Z,360.30
2023-04-07T08:40:52.349Z,345.10
2023-04-07T08:41:53.080Z,356.80
2023-04-07T08:42:53.757Z,378.20
2023-04-07T08:43:54.464Z,361.80
2023-04-07T08:44:55.644Z,361.30
2023-04-07T08:45:55.853Z,379.30
2023-04-07T08:46:56.596Z,399.80
2023-04-07T08:47:57.291Z,383.50
2023-04-07T08:48:57.985Z,387.00
2023-04-07T08:49:58.692Z,384.90
2023-04-07T08:50:59.404Z,387.50
2023-04-07T08:52:21.122Z,418.40
2023-04-07T08:53:00.801Z,391.40
2023-04-07T08:54:01.499Z,411.60
2023-04-07T08:55:02.204Z,383.70
2023-04-07T08:56:02.949Z,387.90
2023-04-07T08:57:03.639Z,398.80
2023-04-07T08:58:04.331Z,409.60
2023-04-07T08:59:05.030Z,395.20
2023-04-07T09:00:06.181Z,356.40
2023-04-07T09:01:06.383Z,391.50
2023-04-07T09:02:07.101Z,375.40
2023-04-07T09:03:10.822Z,388.60
2023-04-07T09:04:08.293Z,366.60
2023-04-07T09:05:09.140Z,373.20
2023-04-07T09:06:09.900Z,411.10
2023-04-07T09:07:10.604Z,379.20
2023-04-07T09:08:11.335Z,370.90
2023-04-07T09:09:13.075Z,359.40
2023-04-07T09:10:12.664Z,368.20
2023-04-07T09:11:13.348Z,361.30
2023-04-07T09:12:14.070Z,353.00
2023-04-07T09:13:14.751Z,371.50
2023-04-07T09:14:15.459Z,366.20
2023-04-07T09:15:38.910Z,369.20
2023-04-07T09:16:16.719Z,356.40
2023-04-07T09:17:17.382Z,333.10
2023-04-07T09:18:18.093Z,377.30
2023-04-07T09:19:18.802Z,356.40
2023-04-07T09:20:19.512Z,374.50
2023-04-07T09:21:20.216Z,365.00
2023-04-07T09:22:20.928Z,354.00
2023-04-07T09:23:21.648Z,341.40
2023-04-07T09:24:22.338Z,343.40
2023-04-07T09:25:23.047Z,347.10
2023-04-07T09:26:23.765Z,323.70
2023-04-07T09:27:24.475Z,332.20
2023-04-07T09:28:25.161Z,368.80
2023-04-07T09:29:25.864Z,324.30
2023-04-07T09:30:26.567Z,326.90
2023-04-07T09:31:27.675Z,339.20
2023-04-07T09:32:27.883Z,370.50
2023-04-07T09:33:28.562Z,346.30
2023-04-07T09:34:29.282Z,361.70
2023-04-07T09:35:30.113Z,326.40
2023-04-07T09:36:30.850Z,320.40
2023-04-07T09:39:20.424Z,289.60
2023-04-07T09:40:21.070Z,304.40
2023-04-07T09:41:21.831Z,291.20
2023-04-07T09:42:22.515Z,263.00
2023-04-07T09:43:23.204Z,286.80
2023-04-07T09:44:23.899Z,255.10
2023-04-07T09:45:34.096Z,286.40
2023-04-07T09:46:26.367Z,237.20
2023-04-07T09:47:25.822Z,257.10
2023-04-07T09:48:26.508Z,231.30
2023-04-07T09:49:27.236Z,254.20
2023-04-07T09:50:27.932Z,259.60
2023-04-07T09:51:28.633Z,255.50
2023-04-07T09:52:29.338Z,280.20
2023-04-07T09:53:30.052Z,278.50
2023-04-07T09:54:30.788Z,282.50
2023-04-07T09:55:31.447Z,255.00
2023-04-07T09:56:32.152Z,253.30
2023-04-07T09:57:32.860Z,241.90
2023-04-07T09:58:33.581Z,223.40
2023-04-07T09:59:34.325Z,238.30
2023-04-07T10:00:35.013Z,225.10
2023-04-07T10:01:35.819Z,228.20
2023-04-07T10:02:36.677Z,208.40
2023-04-07T10:03:37.499Z,217.80
2023-04-07T10:04:38.249Z,226.50
2023-04-07T10:05:38.992Z,223.00
2023-04-07T10:06:39.663Z,217.30
2023-04-07T10:07:42.443Z,178.00
2023-04-07T10:08:40.859Z,212.10
2023-04-07T10:09:41.595Z,207.40
2023-04-07T10:10:42.238Z,225.80
2023-04-07T10:11:42.948Z,207.70
2023-04-07T10:12:43.651Z,210.50
2023-04-07T10:13:44.387Z,222.70
2023-04-07T10:14:45.084Z,197.30
2023-04-07T10:15:45.774Z,194.30
2023-04-07T10:16:46.574Z,190.30
2023-04-07T10:17:47.246Z,181.80
2023-04-07T10:18:47.930Z,199.40
2023-04-07T10:19:48.663Z,192.60
2023-04-07T10:20:49.429Z,203.80
2023-04-07T10:21:50.097Z,202.30
2023-04-07T10:22:50.808Z,221.40
2023-04-07T10:23:51.582Z,203.60
2023-04-07T10:24:52.244Z,207.00
2023-04-07T10:25:52.965Z,206.90
2023-04-07T10:26:53.679Z,214.90
2023-04-07T10:27:54.375Z,242.90
2023-04-07T10:28:55.161Z,242.40
2023-04-07T10:29:56.108Z,224.80
2023-04-07T10:30:56.320Z,226.20
2023-04-07T10:31:57.026Z,215.40
2023-04-07T10:32:57.782Z,203.10
2023-04-07T10:33:58.458Z,158.60
2023-04-07T10:34:59.184Z,150.90
2023-04-07T10:35:59.971Z,182.10
2023-04-07T10:37:00.625Z,173.50
2023-04-07T10:38:01.340Z,188.10
2023-04-07T10:39:02.023Z,185.20
2023-04-07T10:40:03.147Z,207.80
2023-04-07T10:41:03.321Z,211.60
2023-04-07T10:42:04.039Z,219.20
2023-04-07T10:43:04.801Z,207.60
2023-04-07T10:44:05.521Z,204.20
2023-04-07T10:45:06.228Z,190.40
2023-04-07T10:46:06.965Z,213.50
2023-04-07T10:47:07.631Z,234.30
2023-04-07T10:48:08.379Z,225.60
2023-04-07T10:49:09.065Z,247.50
2023-04-07T10:50:09.817Z,248.70
2023-04-07T10:51:10.518Z,236.00
2023-04-07T10:52:11.260Z,221.50
2023-04-07T10:53:11.974Z,252.40
2023-04-07T10:54:12.678Z,247.10
2023-04-07T10:55:13.401Z,250.00
2023-04-07T10:56:14.104Z,259.10
2023-04-07T10:57:14.809Z,263.60
2023-04-07T10:58:15.514Z,254.80
2023-04-07T10:59:16.305Z,274.80
2023-04-07T11:00:38.109Z,290.70
2023-04-07T11:01:17.828Z,277.20
2023-04-07T11:02:18.638Z,271.70
2023-04-07T11:03:19.458Z,270.40
2023-04-07T11:04:20.305Z,264.40
2023-04-07T11:05:20.974Z,274.30
2023-04-07T11:06:21.688Z,292.20
2023-04-07T11:07:22.405Z,319.50
2023-04-07T11:08:23.115Z,314.90
2023-04-07T11:09:23.894Z,305.00
2023-04-07T11:10:24.553Z,282.80
2023-04-07T11:11:25.274Z,270.50
2023-04-07T11:12:25.975Z,275.60
2023-04-07T11:13:26.681Z,269.90
2023-04-07T11:14:27.419Z,270.30
2023-04-07T11:15:28.087Z,286.30
2023-04-07T11:16:28.892Z,263.00
2023-04-07T11:17:29.618Z,319.80
2023-04-07T11:18:30.309Z,320.80
2023-04-07T11:19:31.016Z,327.30
2023-04-07T11:20:31.721Z,307.60
2023-04-07T11:21:32.618Z,269.50
2023-04-07T11:22:33.339Z,267.10
2023-04-07T11:23:34.028Z,250.20
2023-04-07T11:24:55.746Z,262.60
2023-04-07T11:25:35.479Z,240.10
2023-04-07T11:26:36.629Z,252.30
2023-04-07T11:27:36.837Z,237.70
2023-04-07T11:28:37.551Z,217.70
2023-04-07T11:29:38.270Z,218.90
2023-04-07T11:30:38.956Z,242.90
2023-04-07T11:31:40.292Z,245.80
2023-04-07T11:32:40.501Z,206.20
2023-04-07T11:33:41.183Z,226.30
2023-04-07T11:34:41.903Z,235.20
2023-04-07T11:35:42.631Z,249.70
2023-04-07T11:36:43.617Z,211.40
2023-04-07T11:37:43.901Z,200.30
2023-04-07T11:38:47.093Z,220.50
2023-04-07T11:39:45.373Z,199.60
2023-04-07T11:40:46.090Z,204.40
2023-04-07T11:41:47.132Z,209.00
2023-04-07T11:42:47.339Z,217.60
2023-04-07T11:43:48.184Z,238.50
2023-04-07T11:44:48.964Z,227.90
2023-04-07T11:45:49.642Z,230.70
2023-04-07T11:47:11.647Z,233.20
2023-04-07T11:47:51.377Z,234.30
2023-04-07T11:48:52.060Z,228.50
2023-04-07T11:49:52.751Z,236.60
2023-04-07T11:50:53.461Z,252.60
2023-04-07T11:51:54.187Z,249.20
2023-04-07T11:52:54.922Z,278.10
2023-04-07T11:53:55.615Z,296.20
2023-04-07T11:54:56.324Z,336.00
2023-04-07T11:55:57.054Z,360.70
2023-04-07T11:56:57.716Z,316.30
2023-04-07T11:57:58.431Z,290.20
2023-04-07T11:58:59.161Z,266.10
2023-04-07T11:59:59.873Z,240.50
2023-04-07T12:01:00.565Z,247.80
2023-04-07T12:02:01.374Z,265.70
2023-04-07T12:03:02.273Z,268.80
2023-04-07T12:04:03.074Z,234.10
2023-04-07T12:05:03.474Z,230.70
2023-04-07T12:06:04.221Z,225.10
2023-04-07T12:07:27.387Z,221.80
2023-04-07T12:08:05.495Z,239.90
2023-04-07T12:09:06.191Z,213.10
2023-04-07T12:10:06.894Z,217.60
2023-04-07T12:11:07.628Z,206.90
2023-04-07T12:12:08.393Z,222.90
2023-04-07T12:13:09.134Z,190.10
2023-04-07T12:14:09.834Z,196.10
2023-04-07T12:15:10.555Z,190.70
2023-04-07T12:16:11.264Z,200.30
2023-04-07T12:17:11.957Z,178.20
2023-04-07T12:18:12.667Z,193.10
2023-04-07T12:19:13.370Z,210.20
2023-04-07T12:20:14.082Z,232.60
2023-04-07T12:21:14.793Z,275.70
2023-04-07T12:22:15.515Z,263.40
2023-04-07T12:23:16.224Z,288.10
2023-04-07T12:24:37.932Z,277.40
2023-04-07T12:25:17.632Z,296.80
2023-04-07T12:26:18.358Z,323.40
2023-04-07T12:27:20.136Z,344.30
2023-04-07T12:28:19.934Z,340.90
2023-04-07T12:29:20.659Z,328.70
2023-04-07T12:30:21.368Z,332.90
2023-04-07T12:31:22.093Z,351.50
2023-04-07T12:32:22.778Z,351.10
2023-04-07T12:33:23.626Z,342.30
2023-04-07T12:34:24.323Z,352.30
2023-04-07T12:35:25.123Z,368.60
2023-04-07T12:36:25.836Z,356.40
2023-04-07T12:37:26.563Z,337.90
2023-04-07T12:38:27.624Z,312.60
2023-04-07T12:39:27.830Z,313.50
2023-04-07T12:40:28.534Z,287.40
2023-04-07T12:41:29.257Z,273.70
2023-04-07T12:42:29.939Z,257.70
2023-04-07T12:43:52.541Z,243.60
2023-04-07T12:44:31.388Z,251.00
2023-04-07T12:45:32.143Z,209.00